Accueil
METAR-TAF:

METAR-TAF

Aéroports :

Recife, Pernambouc, Brésil

Aéroport international de Recife

latitude: 08-08S, longitude: 034-55W, altitude: 19 m

Observation

Le bulletin a été fait il y a 25 minutes, à 10:00 UTC
Vent calme
Température 26°C
Humidité 79%
Pression 1011 hPa
Visibilité 10 km ou plus
Nuages épars à une hauteur de 2300 ft

METAR: SBRF 241000Z 00000KT 9999 SCT023 26/22 Q1011

Heure: 07:25 (10:25 UTC)

Prévision

Le bulletin a été fait il y a 6 heures et 25 minutes, à 04:00 UTC
Prévision valable du 24 à 06 UTC au 25 à 06 UTC
Vent 4 kt de est/sud-est
Visibilité: 9000 m
Nuages épars à une hauteur de 2000 ft
Evoluant progressivement
du 24 à 12 UTC au 24 à 13 UTC
Vent 8 kt de est/sud-est

TAF: SBRF 240400Z 2406/2506 11004KT 9000 SCT020 TN25/2409Z TX29/2415Z BECMG 2412/2413 11008KT RMK PEU

Observations et prévisions météorologiques de plus de 4000 aéroports (messages METAR et TAF).

Les stations disponibles sont représentées par des disques jaunes et rouges sur la carte.

Passer la souris dessus pour voir le nom de la station.

Cliquer dessus pour voir les observations et prévisions météorologiques.

Pour changer de carte: cliquez sur les boutons verts avec une croix noire pour zoomer, sur le bouton vert avec un tiret pour effectuer un zoom arrière, ou sur les flèches vertes pour les cartes adjacentes.


METAR-TAF: